createdAt,value
2022-10-17T00:01:32.156Z,989.5
2022-10-17T00:03:33.783Z,989.5
2022-10-17T00:05:35.080Z,989.5
2022-10-17T00:07:36.155Z,989.5
2022-10-17T00:09:37.506Z,989.5
2022-10-17T00:11:38.921Z,989.6
2022-10-17T00:13:39.849Z,989.6
2022-10-17T00:15:40.959Z,989.5
2022-10-17T00:17:42.036Z,989.6
2022-10-17T00:21:45.277Z,989.6
2022-10-17T00:23:46.555Z,989.7
2022-10-17T00:25:47.529Z,989.6
2022-10-17T00:27:48.596Z,989.7
2022-10-17T00:29:49.978Z,989.6
2022-10-17T00:31:51.648Z,989.8
2022-10-17T00:33:53.362Z,989.7
2022-10-17T00:35:54.886Z,989.7
2022-10-17T00:37:56.152Z,989.7
2022-10-17T00:39:57.199Z,989.7
2022-10-17T00:41:58.918Z,989.7
2022-10-17T00:44:00.471Z,989.7
2022-10-17T00:48:02.445Z,989.8
2022-10-17T00:50:03.875Z,989.8
2022-10-17T00:52:05.208Z,989.7
2022-10-17T00:54:06.427Z,989.8
2022-10-17T00:56:08.161Z,989.7
2022-10-17T00:58:09.794Z,989.8
2022-10-17T01:00:10.852Z,989.8
2022-10-17T01:02:12.167Z,989.8
2022-10-17T01:04:13.938Z,989.8
2022-10-17T01:06:15.075Z,989.7
2022-10-17T01:08:16.126Z,989.8
2022-10-17T01:10:17.662Z,989.8
2022-10-17T01:12:18.666Z,989.8
2022-10-17T01:14:19.958Z,989.8
2022-10-17T01:16:21.420Z,989.8
2022-10-17T01:18:23.004Z,989.8
2022-10-17T01:20:23.960Z,989.8
2022-10-17T01:22:25.580Z,989.8
2022-10-17T01:24:26.413Z,989.8
2022-10-17T01:26:27.961Z,989.9
2022-10-17T01:28:29.256Z,989.8
2022-10-17T01:30:30.452Z,989.8
2022-10-17T01:32:31.858Z,989.8
2022-10-17T01:34:33.541Z,989.7
2022-10-17T01:36:34.460Z,989.7
2022-10-17T01:40:37.326Z,989.8
2022-10-17T01:42:38.595Z,989.8
2022-10-17T01:46:41.139Z,989.8
2022-10-17T01:48:42.929Z,989.9
2022-10-17T01:50:44.340Z,989.8
2022-10-17T01:52:45.315Z,989.9
2022-10-17T01:54:46.779Z,990
2022-10-17T01:56:48.194Z,989.9
2022-10-17T01:58:49.378Z,989.9
2022-10-17T02:00:51.181Z,989.9
2022-10-17T02:02:52.154Z,989.9
2022-10-17T02:04:53.175Z,989.8
2022-10-17T02:06:54.958Z,989.8
2022-10-17T02:08:56.575Z,989.8
2022-10-17T02:10:57.900Z,989.8
2022-10-17T02:12:59.016Z,989.8
2022-10-17T02:15:00.887Z,989.8
2022-10-17T02:17:02.208Z,989.8
2022-10-17T02:19:03.786Z,989.8
2022-10-17T02:21:05.107Z,990
2022-10-17T02:23:06.800Z,989.8
2022-10-17T02:25:07.774Z,989.9
2022-10-17T02:27:09.388Z,989.9
2022-10-17T02:29:11.270Z,989.9
2022-10-17T02:31:13.027Z,989.8
2022-10-17T02:33:14.906Z,989.9
2022-10-17T02:35:16.315Z,989.8
2022-10-17T02:37:17.775Z,989.9
2022-10-17T02:39:19.105Z,989.9
2022-10-17T02:41:20.438Z,989.8
2022-10-17T02:45:23.097Z,989.8
2022-10-17T02:47:24.725Z,989.9
2022-10-17T02:49:26.333Z,989.8
2022-10-17T02:51:27.364Z,989.9
2022-10-17T02:53:28.909Z,989.9
2022-10-17T02:55:30.449Z,990
2022-10-17T02:57:31.612Z,989.9
2022-10-17T03:01:34.478Z,990
2022-10-17T03:03:35.714Z,990
2022-10-17T03:05:37.528Z,990
2022-10-17T03:07:38.824Z,990.1
2022-10-17T03:09:40.427Z,990
2022-10-17T03:11:41.741Z,990
2022-10-17T03:13:43.352Z,990
2022-10-17T03:15:44.560Z,990
2022-10-17T03:19:47.944Z,990.1
2022-10-17T03:21:48.990Z,990.1
2022-10-17T03:23:50.266Z,990.1
2022-10-17T03:27:53.045Z,990.2
2022-10-17T03:29:54.312Z,990.1
2022-10-17T03:31:55.840Z,990.1
2022-10-17T03:33:56.878Z,990.2
2022-10-17T03:35:57.996Z,990.2
2022-10-17T03:37:59.402Z,990.2
2022-10-17T03:40:01.500Z,990.3
2022-10-17T03:42:02.715Z,990.3
2022-10-17T03:44:04.644Z,990.3
2022-10-17T03:46:05.987Z,990.3
2022-10-17T03:48:06.947Z,990.2
2022-10-17T03:50:08.054Z,990.4
2022-10-17T03:54:10.619Z,990.5
2022-10-17T03:56:12.216Z,990.3
2022-10-17T03:58:13.212Z,990.5
2022-10-17T04:00:14.475Z,990.5
2022-10-17T04:04:17.050Z,990.4
2022-10-17T04:06:18.923Z,990.5
2022-10-17T04:08:20.247Z,990.5
2022-10-17T04:10:21.181Z,990.5
2022-10-17T04:12:22.620Z,990.5
2022-10-17T04:14:23.678Z,990.5
2022-10-17T04:16:24.601Z,990.5
2022-10-17T04:18:26.402Z,990.5
2022-10-17T04:20:27.881Z,990.5
2022-10-17T04:22:29.674Z,990.6
2022-10-17T04:24:30.527Z,990.5
2022-10-17T04:26:31.832Z,990.6
2022-10-17T04:28:33.600Z,990.6
2022-10-17T04:30:35.027Z,990.6
2022-10-17T04:32:36.722Z,990.6
2022-10-17T04:34:38.587Z,990.5
2022-10-17T04:36:40.459Z,990.5
2022-10-17T04:38:41.740Z,990.5
2022-10-17T04:40:43.336Z,990.6
2022-10-17T04:42:44.410Z,990.7
2022-10-17T04:44:46.097Z,990.6
2022-10-17T04:46:47.467Z,990.6
2022-10-17T04:48:48.713Z,990.6
2022-10-17T04:50:49.879Z,990.6
2022-10-17T04:52:51.298Z,990.6
2022-10-17T04:54:52.474Z,990.7
2022-10-17T04:56:53.528Z,990.6
2022-10-17T04:58:54.933Z,990.6
2022-10-17T05:00:56.474Z,990.6
2022-10-17T05:01:48.335Z,990.7
2022-10-17T05:03:49.786Z,990.6
2022-10-17T05:05:51.407Z,990.7
2022-10-17T05:07:52.931Z,990.7
2022-10-17T05:09:53.997Z,990.8
2022-10-17T05:11:55.429Z,990.8
2022-10-17T05:13:57.332Z,990.6
2022-10-17T05:15:59.191Z,990.7
2022-10-17T05:18:00.621Z,990.7
2022-10-17T05:20:02.188Z,990.7
2022-10-17T05:22:03.323Z,990.7
2022-10-17T05:24:04.328Z,990.7
2022-10-17T05:26:05.927Z,990.8
2022-10-17T05:30:08.189Z,990.8
2022-10-17T05:32:09.152Z,990.8
2022-10-17T05:34:11.674Z,990.8
2022-10-17T05:36:12.586Z,990.8
2022-10-17T05:38:14.457Z,990.9
2022-10-17T05:40:16.275Z,990.7
2022-10-17T05:42:18.122Z,990.8
2022-10-17T05:44:19.084Z,990.7
2022-10-17T05:46:20.215Z,990.8
2022-10-17T05:48:22.107Z,990.8
2022-10-17T05:50:23.036Z,990.9
2022-10-17T05:52:24.802Z,990.9
2022-10-17T05:54:25.886Z,990.9
2022-10-17T05:56:26.867Z,990.8
2022-10-17T05:58:45.821Z,990.9
2022-10-17T06:00:29.763Z,991
2022-10-17T06:02:31.469Z,991
2022-10-17T06:04:33.040Z,991.1
2022-10-17T06:06:34.142Z,990.9
2022-10-17T06:08:35.269Z,991
2022-10-17T06:10:36.328Z,991
2022-10-17T06:12:37.795Z,991
2022-10-17T06:14:38.780Z,991
2022-10-17T06:16:39.867Z,991
2022-10-17T06:18:41.691Z,991.1
2022-10-17T06:20:43.912Z,990.9
2022-10-17T06:22:43.861Z,990.9
2022-10-17T06:24:44.815Z,991
2022-10-17T06:28:48.396Z,991
2022-10-17T06:30:49.981Z,991.1
2022-10-17T06:32:51.065Z,991.1
2022-10-17T06:34:52.906Z,991.1
2022-10-17T06:36:54.276Z,991.2
2022-10-17T06:38:56.155Z,991.2
2022-10-17T06:40:57.659Z,991.1
2022-10-17T06:45:01.209Z,991.2
2022-10-17T06:47:02.619Z,991.2
2022-10-17T06:49:03.968Z,991.3
2022-10-17T06:51:05.716Z,991.2
2022-10-17T06:55:08.272Z,991.3
2022-10-17T06:57:10.137Z,991.3
2022-10-17T06:59:11.029Z,991.2
2022-10-17T07:01:12.102Z,991.3
2022-10-17T07:05:14.554Z,991.4
2022-10-17T07:07:16.345Z,991.4
2022-10-17T07:09:17.438Z,991.4
2022-10-17T07:11:18.732Z,991.3
2022-10-17T07:13:20.216Z,991.4
2022-10-17T07:15:21.214Z,991.5
2022-10-17T07:17:22.799Z,991.4
2022-10-17T07:19:23.674Z,991.4
2022-10-17T07:21:25.069Z,991.5
2022-10-17T07:23:26.059Z,991.5
2022-10-17T07:25:27.290Z,991.4
2022-10-17T07:27:29.383Z,991.4
2022-10-17T07:29:29.795Z,991.4
2022-10-17T07:31:30.648Z,991.4
2022-10-17T07:33:31.579Z,991.4
2022-10-17T07:35:32.839Z,991.4
2022-10-17T07:37:34.056Z,991.4
2022-10-17T07:39:35.202Z,991.5
2022-10-17T07:41:36.382Z,991.4
2022-10-17T07:43:37.883Z,991.5
2022-10-17T07:45:39.176Z,991.5
2022-10-17T07:47:40.448Z,991.5
2022-10-17T07:49:42.197Z,991.4
2022-10-17T07:51:43.192Z,991.5
2022-10-17T07:53:46.370Z,991.6
2022-10-17T07:55:46.011Z,991.7
2022-10-17T07:57:47.739Z,991.7
2022-10-17T07:59:48.664Z,991.7
2022-10-17T08:01:49.487Z,991.7
2022-10-17T08:03:51.062Z,991.7
2022-10-17T08:05:52.118Z,991.7
2022-10-17T08:07:53.440Z,991.7
2022-10-17T08:09:54.705Z,991.8
2022-10-17T08:11:56.335Z,991.7
2022-10-17T08:13:57.592Z,991.7
2022-10-17T08:15:59.128Z,991.7
2022-10-17T08:18:00.350Z,991.7
2022-10-17T08:20:01.813Z,991.8
2022-10-17T08:22:02.717Z,991.8
2022-10-17T08:24:03.786Z,991.7
2022-10-17T08:26:04.932Z,991.8
2022-10-17T08:30:09.272Z,991.9
2022-10-17T08:32:11.032Z,991.8
2022-10-17T08:36:13.011Z,991.8
2022-10-17T08:38:15.251Z,991.8
2022-10-17T08:40:15.877Z,991.8
2022-10-17T08:42:17.330Z,991.8
2022-10-17T08:44:18.905Z,991.8
2022-10-17T08:46:21.595Z,991.7
2022-10-17T08:48:22.588Z,991.9
2022-10-17T08:50:24.298Z,991.8
2022-10-17T08:52:25.893Z,991.9
2022-10-17T08:54:27.353Z,991.8
2022-10-17T08:56:44.376Z,991.9
2022-10-17T08:58:30.286Z,991.8
2022-10-17T09:00:31.155Z,991.8
2022-10-17T09:02:32.656Z,991.8
2022-10-17T09:06:34.769Z,991.9
2022-10-17T09:08:35.605Z,991.9
2022-10-17T09:10:36.848Z,991.9
2022-10-17T09:12:38.276Z,991.9
2022-10-17T09:14:39.646Z,991.8
2022-10-17T09:16:41.100Z,991.7
2022-10-17T09:18:42.740Z,991.8
2022-10-17T09:20:44.343Z,991.7
2022-10-17T09:22:45.907Z,991.8
2022-10-17T09:24:47.341Z,991.8
2022-10-17T09:26:48.214Z,991.8
2022-10-17T09:28:49.839Z,991.8
2022-10-17T09:30:50.824Z,991.8
2022-10-17T09:34:52.657Z,991.7
2022-10-17T09:36:53.851Z,991.8
2022-10-17T09:38:55.286Z,991.7
2022-10-17T09:40:57.159Z,991.6
2022-10-17T09:42:57.649Z,991.6
2022-10-17T09:44:58.492Z,991.5
2022-10-17T09:46:59.847Z,991.6
2022-10-17T09:51:14.523Z,991.5
2022-10-17T09:53:02.714Z,991.6
2022-10-17T09:55:04.362Z,991.5
2022-10-17T09:57:05.851Z,991.5
2022-10-17T09:59:10.353Z,991.6
2022-10-17T10:01:08.167Z,991.4
2022-10-17T10:03:09.404Z,991.5
2022-10-17T10:05:10.371Z,991.5
2022-10-17T10:07:11.523Z,991.5
2022-10-17T10:09:12.409Z,991.5
2022-10-17T10:11:14.670Z,991.5
2022-10-17T10:13:16.133Z,991.5
2022-10-17T10:15:17.780Z,991.5
2022-10-17T10:17:20.047Z,991.6
2022-10-17T10:19:21.636Z,991.5
2022-10-17T10:21:22.725Z,991.6
2022-10-17T10:23:24.933Z,991.5
2022-10-17T10:25:26.556Z,991.5
2022-10-17T10:27:28.197Z,991.5
2022-10-17T10:29:29.692Z,991.5
2022-10-17T10:33:32.107Z,991.5
2022-10-17T10:35:33.242Z,991.6
2022-10-17T10:37:34.082Z,991.6
2022-10-17T10:39:34.849Z,991.7
2022-10-17T10:41:36.614Z,991.8
2022-10-17T10:43:37.437Z,991.9
2022-10-17T10:45:48.247Z,992
2022-10-17T10:47:40.745Z,992
2022-10-17T10:49:42.356Z,991.9
2022-10-17T10:51:43.302Z,991.9
2022-10-17T10:53:44.111Z,991.9
2022-10-17T10:55:45.842Z,991.9
2022-10-17T10:59:49.066Z,991.9
2022-10-17T11:01:50.436Z,991.9
2022-10-17T11:03:51.294Z,991.9
2022-10-17T11:05:52.853Z,991.9
2022-10-17T11:07:54.397Z,991.8
2022-10-17T11:09:55.734Z,991.8
2022-10-17T11:11:56.981Z,991.8
2022-10-17T11:13:58.000Z,991.7
2022-10-17T11:15:59.249Z,991.6
2022-10-17T11:18:00.591Z,991.7
2022-10-17T11:20:01.408Z,991.6
2022-10-17T11:22:03.119Z,991.5
2022-10-17T11:24:05.655Z,991.5
2022-10-17T11:26:05.293Z,991.6
2022-10-17T11:28:06.166Z,991.5
2022-10-17T11:30:39.825Z,991.6
2022-10-17T11:32:09.014Z,991.7
2022-10-17T11:34:10.233Z,991.6
2022-10-17T11:36:11.300Z,991.6
2022-10-17T11:38:12.783Z,991.6
2022-10-17T11:40:14.136Z,991.6
2022-10-17T11:42:15.420Z,991.6
2022-10-17T11:44:16.265Z,991.6
2022-10-17T11:46:17.269Z,991.6
2022-10-17T11:47:00.937Z,991.6
2022-10-17T11:49:02.449Z,991.5
2022-10-17T11:53:05.291Z,991.6
2022-10-17T11:55:06.511Z,991.5
2022-10-17T11:57:10.698Z,991.5
2022-10-17T11:59:09.864Z,991.6
2022-10-17T12:01:10.707Z,991.6
2022-10-17T12:03:12.160Z,991.6
2022-10-17T12:05:13.511Z,991.4
2022-10-17T12:07:14.525Z,991.5
2022-10-17T12:09:15.276Z,991.5
2022-10-17T12:11:16.462Z,991.5
2022-10-17T12:13:17.160Z,991.5
2022-10-17T12:15:18.375Z,991.4
2022-10-17T12:17:19.664Z,991.5
2022-10-17T12:19:20.653Z,991.5
2022-10-17T12:21:22.456Z,991.5
2022-10-17T12:23:23.049Z,991.6
2022-10-17T12:25:24.783Z,991.5
2022-10-17T12:27:26.043Z,991.6
2022-10-17T12:29:26.824Z,991.7
2022-10-17T12:31:32.631Z,991.6
2022-10-17T12:33:29.032Z,991.6
2022-10-17T12:35:29.833Z,991.6
2022-10-17T12:37:31.752Z,991.6
2022-10-17T12:39:32.589Z,991.6
2022-10-17T12:41:33.732Z,991.6
2022-10-17T12:43:35.201Z,991.6
2022-10-17T12:47:38.161Z,991.6
2022-10-17T12:51:40.636Z,991.7
2022-10-17T12:53:41.851Z,991.7
2022-10-17T12:55:42.908Z,991.7
2022-10-17T12:57:44.366Z,991.8
2022-10-17T12:59:45.620Z,991.7
2022-10-17T13:01:47.247Z,991.7
2022-10-17T13:03:48.380Z,991.8
2022-10-17T13:05:49.433Z,991.8
2022-10-17T13:07:50.801Z,991.8
2022-10-17T13:09:51.672Z,991.8
2022-10-17T13:11:52.474Z,991.8
2022-10-17T13:13:53.922Z,991.9
2022-10-17T13:15:55.626Z,991.9
2022-10-17T13:17:56.633Z,991.9
2022-10-17T13:19:58.389Z,991.9
2022-10-17T13:24:00.734Z,991.9
2022-10-17T13:26:02.104Z,991.9
2022-10-17T13:28:03.700Z,991.9
2022-10-17T13:30:04.823Z,992
2022-10-17T13:32:06.497Z,992
2022-10-17T13:34:08.053Z,992
2022-10-17T13:36:09.147Z,992
2022-10-17T13:38:10.350Z,992
2022-10-17T13:40:25.018Z,992.1
2022-10-17T13:42:13.308Z,992.2
2022-10-17T13:44:14.829Z,992.2
2022-10-17T13:46:35.927Z,992.2
2022-10-17T13:48:17.187Z,992.3
2022-10-17T13:50:32.678Z,992.3
2022-10-17T13:52:19.778Z,992.3
2022-10-17T13:54:21.316Z,992.3
2022-10-17T13:56:28.160Z,992.3
2022-10-17T13:58:23.149Z,992.4
2022-10-17T14:00:24.649Z,992.4
2022-10-17T14:02:25.800Z,992.4
2022-10-17T14:06:27.985Z,992.3
2022-10-17T14:08:29.497Z,992.3
2022-10-17T14:10:30.821Z,992.4
2022-10-17T14:12:31.849Z,992.4
2022-10-17T14:16:35.034Z,992.3
2022-10-17T14:18:36.842Z,992.3
2022-10-17T14:21:29.046Z,992.3
2022-10-17T14:22:38.788Z,992.3
2022-10-17T14:24:40.380Z,992.5
2022-10-17T14:26:41.203Z,992.4
2022-10-17T14:28:42.733Z,992.5
2022-10-17T14:30:55.538Z,992.3
2022-10-17T14:32:45.363Z,992.3
2022-10-17T14:34:47.237Z,992.3
2022-10-17T14:36:48.714Z,992.4
2022-10-17T14:38:50.327Z,992.4
2022-10-17T14:40:52.090Z,992.4
2022-10-17T14:42:52.965Z,992.4
2022-10-17T14:44:53.882Z,992.4
2022-10-17T14:46:55.609Z,992.4
2022-10-17T14:48:56.397Z,992.3
2022-10-17T14:50:57.416Z,992.3
2022-10-17T14:52:59.117Z,992.2
2022-10-17T14:55:00.495Z,992.3
2022-10-17T14:57:01.832Z,992.4
2022-10-17T14:59:03.248Z,992.3
2022-10-17T15:01:04.389Z,992.3
2022-10-17T15:03:05.726Z,992.3
2022-10-17T15:05:09.476Z,992.4
2022-10-17T15:07:08.835Z,992.4
2022-10-17T15:09:09.974Z,992.4
2022-10-17T15:11:10.914Z,992.4
2022-10-17T15:13:28.401Z,992.3
2022-10-17T15:15:13.573Z,992.3
2022-10-17T15:17:14.817Z,992.4
2022-10-17T15:21:26.146Z,992.5
2022-10-17T15:23:19.379Z,992.5
2022-10-17T15:25:20.796Z,992.4
2022-10-17T15:27:21.929Z,992.5
2022-10-17T15:29:23.110Z,992.5
2022-10-17T15:31:24.498Z,992.5
2022-10-17T15:33:25.894Z,992.6
2022-10-17T15:35:27.321Z,992.6
2022-10-17T15:37:29.359Z,992.6
2022-10-17T15:39:30.445Z,992.6
2022-10-17T15:41:31.473Z,992.6
2022-10-17T15:43:33.018Z,992.6
2022-10-17T15:45:34.526Z,992.6
2022-10-17T15:47:35.734Z,992.5
2022-10-17T15:49:37.051Z,992.6
2022-10-17T15:51:38.181Z,992.7
2022-10-17T15:53:39.009Z,992.6
2022-10-17T15:55:40.043Z,992.7
2022-10-17T15:57:41.419Z,992.7
2022-10-17T15:59:42.432Z,992.6
2022-10-17T16:01:43.587Z,992.6
2022-10-17T16:03:44.838Z,992.7
2022-10-17T16:05:46.316Z,992.7
2022-10-17T16:07:47.243Z,992.7
2022-10-17T16:09:48.730Z,992.7
2022-10-17T16:11:49.834Z,992.7
2022-10-17T16:13:50.797Z,992.7
2022-10-17T16:15:52.861Z,992.8
2022-10-17T16:17:54.055Z,992.8
2022-10-17T16:19:55.385Z,992.8
2022-10-17T16:21:57.628Z,992.8
2022-10-17T16:25:59.242Z,992.9
2022-10-17T16:28:00.491Z,992.9
2022-10-17T16:30:01.727Z,992.9
2022-10-17T16:32:03.346Z,992.9
2022-10-17T16:34:04.830Z,992.9
2022-10-17T16:36:06.519Z,993
2022-10-17T16:40:09.184Z,993
2022-10-17T16:42:10.814Z,993
2022-10-17T16:46:12.980Z,992.9
2022-10-17T16:48:14.756Z,992.9
2022-10-17T16:50:16.279Z,993.1
2022-10-17T16:52:17.780Z,993.2
2022-10-17T16:54:18.719Z,993.1
2022-10-17T16:56:19.579Z,993.1
2022-10-17T16:58:21.172Z,993.1
2022-10-17T17:00:22.475Z,993.1
2022-10-17T17:02:24.306Z,993.1
2022-10-17T17:04:25.200Z,993.2
2022-10-17T17:06:26.465Z,993.2
2022-10-17T17:08:27.933Z,993.2
2022-10-17T17:10:29.662Z,993.3
2022-10-17T17:12:31.187Z,993.2
2022-10-17T17:14:32.582Z,993.2
2022-10-17T17:16:33.779Z,993.3
2022-10-17T17:18:34.818Z,993.4
2022-10-17T17:20:36.527Z,993.4
2022-10-17T17:22:37.747Z,993.4
2022-10-17T17:24:39.040Z,993.4
2022-10-17T17:26:40.413Z,993.5
2022-10-17T17:28:41.724Z,993.4
2022-10-17T17:30:43.123Z,993.4
2022-10-17T17:32:44.926Z,993.4
2022-10-17T17:34:46.754Z,993.5
2022-10-17T17:36:47.848Z,993.4
2022-10-17T17:38:49.170Z,993.4
2022-10-17T17:40:50.903Z,993.4
2022-10-17T17:42:51.579Z,993.5
2022-10-17T17:44:52.600Z,993.6
2022-10-17T17:46:53.580Z,993.4
2022-10-17T17:48:55.056Z,993.5
2022-10-17T17:50:56.396Z,993.6
2022-10-17T17:52:57.737Z,993.6
2022-10-17T17:54:58.865Z,993.6
2022-10-17T17:56:59.861Z,993.6
2022-10-17T17:59:00.952Z,993.6
2022-10-17T18:01:02.279Z,993.7
2022-10-17T18:03:03.838Z,993.7
2022-10-17T18:05:04.945Z,993.7
2022-10-17T18:07:06.218Z,993.7
2022-10-17T18:09:07.889Z,993.6
2022-10-17T18:11:09.123Z,993.7
2022-10-17T18:13:10.290Z,993.7
2022-10-17T18:15:12.033Z,993.7
2022-10-17T18:17:13.646Z,993.7
2022-10-17T18:21:16.292Z,993.7
2022-10-17T18:23:17.895Z,993.7
2022-10-17T18:25:19.185Z,993.7
2022-10-17T18:27:20.711Z,993.6
2022-10-17T18:29:21.659Z,993.7
2022-10-17T18:31:22.821Z,993.8
2022-10-17T18:32:06.673Z,993.7
2022-10-17T18:34:08.256Z,993.7
2022-10-17T18:36:09.569Z,993.7
2022-10-17T18:38:11.221Z,993.7
2022-10-17T18:40:12.920Z,993.8
2022-10-17T18:42:14.338Z,993.6
2022-10-17T18:44:16.122Z,993.8
2022-10-17T18:46:17.001Z,993.8
2022-10-17T18:48:18.368Z,993.8
2022-10-17T18:50:20.122Z,993.8
2022-10-17T18:52:21.756Z,993.9
2022-10-17T18:54:23.079Z,994
2022-10-17T18:56:24.762Z,993.9
2022-10-17T18:58:25.700Z,993.9
2022-10-17T19:00:27.082Z,994
2022-10-17T19:02:28.112Z,994
2022-10-17T19:04:29.721Z,994
2022-10-17T19:06:31.241Z,994
2022-10-17T19:08:32.925Z,994
2022-10-17T19:10:34.401Z,993.9
2022-10-17T19:12:35.711Z,994
2022-10-17T19:14:37.589Z,993.9
2022-10-17T19:16:38.769Z,993.9
2022-10-17T19:20:41.715Z,994
2022-10-17T19:22:43.011Z,993.9
2022-10-17T19:24:44.017Z,994.1
2022-10-17T19:26:45.087Z,994
2022-10-17T19:28:46.623Z,994
2022-10-17T19:30:48.454Z,994
2022-10-17T19:32:50.251Z,994
2022-10-17T19:34:51.841Z,993.9
2022-10-17T19:36:53.509Z,994
2022-10-17T19:38:54.971Z,993.9
2022-10-17T19:40:56.871Z,994
2022-10-17T19:42:58.410Z,994.1
2022-10-17T19:45:00.123Z,994
2022-10-17T19:47:01.699Z,994
2022-10-17T19:49:03.084Z,994.1
2022-10-17T19:51:04.017Z,994.1
2022-10-17T19:53:05.407Z,994
2022-10-17T19:55:06.486Z,994
2022-10-17T19:57:08.143Z,994
2022-10-17T19:59:08.377Z,994
2022-10-17T20:01:10.275Z,994.1
2022-10-17T20:03:11.154Z,994.1
2022-10-17T20:05:18.322Z,994
2022-10-17T20:07:14.028Z,994.1
2022-10-17T20:09:16.517Z,994
2022-10-17T20:11:16.243Z,994
2022-10-17T20:13:17.879Z,994
2022-10-17T20:15:19.561Z,994.1
2022-10-17T20:17:21.382Z,994
2022-10-17T20:19:22.763Z,994
2022-10-17T20:21:24.015Z,994
2022-10-17T20:23:25.560Z,993.9
2022-10-17T20:25:27.148Z,994
2022-10-17T20:29:29.865Z,994.1
2022-10-17T20:31:30.965Z,994
2022-10-17T20:33:32.088Z,994
2022-10-17T20:35:33.677Z,994
2022-10-17T20:39:36.507Z,994
2022-10-17T20:41:37.844Z,994
2022-10-17T20:43:38.992Z,994.1
2022-10-17T20:45:50.223Z,994.1
2022-10-17T20:47:46.206Z,994.1
2022-10-17T20:49:43.004Z,994.1
2022-10-17T20:51:44.114Z,994
2022-10-17T20:53:45.630Z,994.1
2022-10-17T20:55:47.213Z,994
2022-10-17T20:57:48.731Z,994.1
2022-10-17T20:59:50.571Z,994.1
2022-10-17T21:01:52.245Z,994.1
2022-10-17T21:03:53.695Z,994.1
2022-10-17T21:05:55.402Z,994.1
2022-10-17T21:07:56.296Z,994.2
2022-10-17T21:10:00.279Z,994.2
2022-10-17T21:11:58.582Z,994.2
2022-10-17T21:13:59.630Z,994.2
2022-10-17T21:16:00.685Z,994.2
2022-10-17T21:18:02.082Z,994.2
2022-10-17T21:20:03.309Z,994.2
2022-10-17T21:22:05.091Z,994.2
2022-10-17T21:24:06.117Z,994.1
2022-10-17T21:26:07.504Z,994.1
2022-10-17T21:28:09.030Z,994.2
2022-10-17T21:30:10.301Z,994.2
2022-10-17T21:32:19.407Z,994.2
2022-10-17T21:34:13.020Z,994.2
2022-10-17T21:36:14.236Z,994.2
2022-10-17T21:38:15.764Z,994.2
2022-10-17T21:40:16.687Z,994.1
2022-10-17T21:44:19.444Z,994
2022-10-17T21:46:20.737Z,994.1
2022-10-17T21:48:22.116Z,994
2022-10-17T21:50:23.598Z,994.1
2022-10-17T21:52:24.800Z,994.1
2022-10-17T21:54:26.173Z,994.2
2022-10-17T21:56:27.972Z,994.1
2022-10-17T21:58:29.032Z,994.1
2022-10-17T22:00:31.933Z,994.1
2022-10-17T22:02:32.584Z,994.1
2022-10-17T22:04:33.180Z,994.1
2022-10-17T22:06:40.017Z,994.1
2022-10-17T22:08:35.763Z,994.1
2022-10-17T22:10:36.726Z,994.1
2022-10-17T22:12:38.300Z,994.2
2022-10-17T22:14:39.598Z,994.2
2022-10-17T22:16:41.232Z,994.2
2022-10-17T22:18:42.585Z,994.1
2022-10-17T22:20:44.473Z,994.1
2022-10-17T22:22:45.987Z,994.1
2022-10-17T22:24:47.772Z,994.2
2022-10-17T22:26:49.350Z,994
2022-10-17T22:28:50.897Z,994.1
2022-10-17T22:30:52.740Z,994.1
2022-10-17T22:32:54.633Z,994.1
2022-10-17T22:34:55.834Z,994.2
2022-10-17T22:36:56.858Z,994.1
2022-10-17T22:38:58.293Z,994.1
2022-10-17T22:40:59.310Z,994.1
2022-10-17T22:43:00.285Z,994
2022-10-17T22:45:01.349Z,994.1
2022-10-17T22:47:02.786Z,994
2022-10-17T22:49:03.879Z,994
2022-10-17T22:53:05.824Z,993.8
2022-10-17T22:55:06.993Z,993.9
2022-10-17T22:57:08.859Z,993.9
2022-10-17T22:59:09.777Z,993.8
2022-10-17T23:03:12.776Z,993.8
2022-10-17T23:05:13.729Z,993.7
2022-10-17T23:09:16.386Z,993.7
2022-10-17T23:11:17.894Z,993.8
2022-10-17T23:13:19.804Z,993.9
2022-10-17T23:15:21.343Z,993.9
2022-10-17T23:17:23.053Z,993.8
2022-10-17T23:19:24.278Z,993.9
2022-10-17T23:21:25.232Z,993.8
2022-10-17T23:23:26.993Z,993.8
2022-10-17T23:25:28.494Z,993.8
2022-10-17T23:29:31.919Z,993.8
2022-10-17T23:31:33.298Z,993.9
2022-10-17T23:33:34.788Z,993.8
2022-10-17T23:35:36.297Z,993.8
2022-10-17T23:37:37.608Z,993.8
2022-10-17T23:39:39.515Z,993.7
2022-10-17T23:41:40.579Z,993.7
2022-10-17T23:43:42.412Z,993.9
2022-10-17T23:45:43.748Z,993.7
2022-10-17T23:47:45.350Z,993.7
2022-10-17T23:51:48.258Z,993.7
2022-10-17T23:53:49.736Z,993.7
2022-10-17T23:55:51.504Z,993.8
2022-10-17T23:57:53.069Z,993.7
2022-10-17T23:59:54.506Z,993.7
